sensor_id;sensor_type;location;lat;lon;timestamp;temperature;humidity
10247;DHT22;5168;47.854;7.944;2022-08-19T00:01:39;14.30;99.90
10247;DHT22;5168;47.854;7.944;2022-08-19T00:04:08;14.10;99.90
10247;DHT22;5168;47.854;7.944;2022-08-19T00:06:35;14.70;99.90
10247;DHT22;5168;47.854;7.944;2022-08-19T00:11:27;14.40;99.90
10247;DHT22;5168;47.854;7.944;2022-08-19T00:13:54;14.40;99.90
10247;DHT22;5168;47.854;7.944;2022-08-19T00:16:20;14.40;99.90
10247;DHT22;5168;47.854;7.944;2022-08-19T00:18:47;14.20;99.90
10247;DHT22;5168;47.854;7.944;2022-08-19T00:21:13;14.20;99.90
10247;DHT22;5168;47.854;7.944;2022-08-19T00:28:32;14.00;99.90
10247;DHT22;5168;47.854;7.944;2022-08-19T00:38:16;14.40;99.90
10247;DHT22;5168;47.854;7.944;2022-08-19T00:40:43;14.70;99.90
10247;DHT22;5168;47.854;7.944;2022-08-19T00:43:12;14.20;99.90
10247;DHT22;5168;47.854;7.944;2022-08-19T00:50:35;15.00;99.90
10247;DHT22;5168;47.854;7.944;2022-08-19T00:53:02;14.50;99.90
10247;DHT22;5168;47.854;7.944;2022-08-19T00:55:28;14.60;99.90
10247;DHT22;5168;47.854;7.944;2022-08-19T00:58:02;14.60;99.90
10247;DHT22;5168;47.854;7.944;2022-08-19T01:00:29;14.50;99.90
10247;DHT22;5168;47.854;7.944;2022-08-19T01:02:55;14.50;99.90
10247;DHT22;5168;47.854;7.944;2022-08-19T01:05:24;14.70;99.90
10247;DHT22;5168;47.854;7.944;2022-08-19T01:07:53;14.70;99.90
10247;DHT22;5168;47.854;7.944;2022-08-19T01:10:21;14.60;99.90
10247;DHT22;5168;47.854;7.944;2022-08-19T01:12:50;14.70;99.90
10247;DHT22;5168;47.854;7.944;2022-08-19T01:15:19;14.50;99.90
10247;DHT22;5168;47.854;7.944;2022-08-19T01:17:46;14.70;99.90
10247;DHT22;5168;47.854;7.944;2022-08-19T01:20:21;14.70;99.90
10247;DHT22;5168;47.854;7.944;2022-08-19T01:22:50;14.70;99.90
10247;DHT22;5168;47.854;7.944;2022-08-19T01:25:19;15.10;99.90
10247;DHT22;5168;47.854;7.944;2022-08-19T01:27:48;15.30;99.90
10247;DHT22;5168;47.854;7.944;2022-08-19T01:30:24;15.20;99.90
10247;DHT22;5168;47.854;7.944;2022-08-19T01:32:51;15.10;99.90
10247;DHT22;5168;47.854;7.944;2022-08-19T01:35:17;14.80;99.90
10247;DHT22;5168;47.854;7.944;2022-08-19T01:37:52;14.30;99.90
10247;DHT22;5168;47.854;7.944;2022-08-19T01:40:20;15.20;99.90
10247;DHT22;5168;47.854;7.944;2022-08-19T01:42:48;14.80;99.90
10247;DHT22;5168;47.854;7.944;2022-08-19T01:47:40;14.50;99.90
10247;DHT22;5168;47.854;7.944;2022-08-19T01:50:07;15.00;99.90
10247;DHT22;5168;47.854;7.944;2022-08-19T01:52:36;14.30;99.90
10247;DHT22;5168;47.854;7.944;2022-08-19T01:57:27;14.70;99.90
10247;DHT22;5168;47.854;7.944;2022-08-19T01:59:53;14.90;99.90
10247;DHT22;5168;47.854;7.944;2022-08-19T02:02:19;14.90;99.90
10247;DHT22;5168;47.854;7.944;2022-08-19T02:04:44;15.10;99.90
10247;DHT22;5168;47.854;7.944;2022-08-19T02:07:11;14.80;99.90
10247;DHT22;5168;47.854;7.944;2022-08-19T02:09:36;14.40;99.90
10247;DHT22;5168;47.854;7.944;2022-08-19T02:12:04;14.90;99.90
10247;DHT22;5168;47.854;7.944;2022-08-19T02:14:30;14.40;99.90
10247;DHT22;5168;47.854;7.944;2022-08-19T02:16:55;14.50;99.90
10247;DHT22;5168;47.854;7.944;2022-08-19T02:19:21;14.60;99.90
10247;DHT22;5168;47.854;7.944;2022-08-19T02:24:12;14.70;99.90
10247;DHT22;5168;47.854;7.944;2022-08-19T02:26:38;15.00;99.90
10247;DHT22;5168;47.854;7.944;2022-08-19T02:29:04;15.30;99.90
10247;DHT22;5168;47.854;7.944;2022-08-19T02:31:29;14.70;99.90
10247;DHT22;5168;47.854;7.944;2022-08-19T02:33:56;15.00;99.90
10247;DHT22;5168;47.854;7.944;2022-08-19T02:41:17;14.90;99.90
10247;DHT22;5168;47.854;7.944;2022-08-19T02:43:43;14.50;99.90
10247;DHT22;5168;47.854;7.944;2022-08-19T02:48:39;15.20;99.90
10247;DHT22;5168;47.854;7.944;2022-08-19T02:51:04;14.60;99.90
10247;DHT22;5168;47.854;7.944;2022-08-19T02:53:30;14.80;99.90
10247;DHT22;5168;47.854;7.944;2022-08-19T02:55:56;14.80;99.90
10247;DHT22;5168;47.854;7.944;2022-08-19T02:58:23;15.00;99.90
10247;DHT22;5168;47.854;7.944;2022-08-19T03:00:51;14.50;99.90
10247;DHT22;5168;47.854;7.944;2022-08-19T03:03:18;14.80;99.90
10247;DHT22;5168;47.854;7.944;2022-08-19T03:05:45;14.60;99.90
10247;DHT22;5168;47.854;7.944;2022-08-19T03:08:11;14.30;99.90
10247;DHT22;5168;47.854;7.944;2022-08-19T03:10:42;14.80;99.90
10247;DHT22;5168;47.854;7.944;2022-08-19T03:13:10;14.30;99.90
10247;DHT22;5168;47.854;7.944;2022-08-19T03:15:39;14.70;99.90
10247;DHT22;5168;47.854;7.944;2022-08-19T03:18:05;15.10;99.90
10247;DHT22;5168;47.854;7.944;2022-08-19T03:20:31;14.80;99.90
10247;DHT22;5168;47.854;7.944;2022-08-19T03:22:56;14.30;99.90
10247;DHT22;5168;47.854;7.944;2022-08-19T03:25:22;15.10;99.90
10247;DHT22;5168;47.854;7.944;2022-08-19T03:27:48;15.10;99.90
10247;DHT22;5168;47.854;7.944;2022-08-19T03:30:14;14.30;99.90
10247;DHT22;5168;47.854;7.944;2022-08-19T03:35:06;14.70;99.90
10247;DHT22;5168;47.854;7.944;2022-08-19T03:37:32;15.00;99.90
10247;DHT22;5168;47.854;7.944;2022-08-19T03:39:57;15.10;99.90
10247;DHT22;5168;47.854;7.944;2022-08-19T03:42:23;14.40;99.90
10247;DHT22;5168;47.854;7.944;2022-08-19T03:44:48;14.70;99.90
10247;DHT22;5168;47.854;7.944;2022-08-19T03:49:41;14.20;99.90
10247;DHT22;5168;47.854;7.944;2022-08-19T03:54:33;14.40;99.90
10247;DHT22;5168;47.854;7.944;2022-08-19T03:56:59;14.80;99.90
10247;DHT22;5168;47.854;7.944;2022-08-19T03:59:30;14.50;99.90
10247;DHT22;5168;47.854;7.944;2022-08-19T04:01:59;14.80;99.90
10247;DHT22;5168;47.854;7.944;2022-08-19T04:06:52;14.70;99.90
10247;DHT22;5168;47.854;7.944;2022-08-19T04:09:18;14.80;99.90
10247;DHT22;5168;47.854;7.944;2022-08-19T04:11:47;14.60;99.90
10247;DHT22;5168;47.854;7.944;2022-08-19T04:14:16;15.20;99.90
10247;DHT22;5168;47.854;7.944;2022-08-19T04:16:42;14.70;99.90
10247;DHT22;5168;47.854;7.944;2022-08-19T04:19:09;14.80;99.90
10247;DHT22;5168;47.854;7.944;2022-08-19T04:21:35;15.20;99.90
10247;DHT22;5168;47.854;7.944;2022-08-19T04:24:01;14.50;99.90
10247;DHT22;5168;47.854;7.944;2022-08-19T04:26:30;14.90;99.90
10247;DHT22;5168;47.854;7.944;2022-08-19T04:29:01;14.60;99.90
10247;DHT22;5168;47.854;7.944;2022-08-19T04:31:30;14.70;99.90
10247;DHT22;5168;47.854;7.944;2022-08-19T04:33:57;15.20;99.90
10247;DHT22;5168;47.854;7.944;2022-08-19T04:36:33;15.20;99.90
10247;DHT22;5168;47.854;7.944;2022-08-19T04:39:04;14.60;99.90
10247;DHT22;5168;47.854;7.944;2022-08-19T04:41:31;14.90;99.90
10247;DHT22;5168;47.854;7.944;2022-08-19T04:46:44;15.10;99.90
10247;DHT22;5168;47.854;7.944;2022-08-19T04:49:09;14.20;99.90
10247;DHT22;5168;47.854;7.944;2022-08-19T04:54:03;14.70;99.90
10247;DHT22;5168;47.854;7.944;2022-08-19T04:58:55;14.70;99.90
10247;DHT22;5168;47.854;7.944;2022-08-19T05:01:25;14.80;99.90
10247;DHT22;5168;47.854;7.944;2022-08-19T05:03:50;14.50;99.90
10247;DHT22;5168;47.854;7.944;2022-08-19T05:06:18;14.80;99.90
10247;DHT22;5168;47.854;7.944;2022-08-19T05:08:45;14.20;99.90
10247;DHT22;5168;47.854;7.944;2022-08-19T05:11:16;14.90;99.90
10247;DHT22;5168;47.854;7.944;2022-08-19T05:13:45;14.80;99.90
10247;DHT22;5168;47.854;7.944;2022-08-19T05:16:12;14.70;99.90
10247;DHT22;5168;47.854;7.944;2022-08-19T05:18:39;14.70;99.90
10247;DHT22;5168;47.854;7.944;2022-08-19T05:21:23;15.10;99.90
10247;DHT22;5168;47.854;7.944;2022-08-19T05:24:07;14.70;99.90
10247;DHT22;5168;47.854;7.944;2022-08-19T05:26:38;14.50;99.90
10247;DHT22;5168;47.854;7.944;2022-08-19T05:29:04;15.10;99.90
10247;DHT22;5168;47.854;7.944;2022-08-19T05:31:30;15.00;99.90
10247;DHT22;5168;47.854;7.944;2022-08-19T05:33:56;15.00;99.90
10247;DHT22;5168;47.854;7.944;2022-08-19T05:36:25;15.20;99.90
10247;DHT22;5168;47.854;7.944;2022-08-19T05:38:51;14.50;99.90
10247;DHT22;5168;47.854;7.944;2022-08-19T05:46:17;15.40;99.90
10247;DHT22;5168;47.854;7.944;2022-08-19T05:48:43;15.10;99.90
10247;DHT22;5168;47.854;7.944;2022-08-19T05:51:09;15.10;99.90
10247;DHT22;5168;47.854;7.944;2022-08-19T05:53:35;14.80;99.90
10247;DHT22;5168;47.854;7.944;2022-08-19T05:56:14;14.80;99.90
10247;DHT22;5168;47.854;7.944;2022-08-19T05:58:44;14.80;99.90
10247;DHT22;5168;47.854;7.944;2022-08-19T06:01:13;14.50;99.90
10247;DHT22;5168;47.854;7.944;2022-08-19T06:03:39;15.00;99.90
10247;DHT22;5168;47.854;7.944;2022-08-19T06:06:06;14.50;99.90
10247;DHT22;5168;47.854;7.944;2022-08-19T06:08:33;14.80;99.90
10247;DHT22;5168;47.854;7.944;2022-08-19T06:18:31;15.00;99.90
10247;DHT22;5168;47.854;7.944;2022-08-19T06:25:51;14.50;99.90
10247;DHT22;5168;47.854;7.944;2022-08-19T06:28:16;15.50;99.90
10247;DHT22;5168;47.854;7.944;2022-08-19T06:30:42;14.50;99.90
10247;DHT22;5168;47.854;7.944;2022-08-19T06:33:07;14.90;99.90
10247;DHT22;5168;47.854;7.944;2022-08-19T06:35:38;15.20;99.90
10247;DHT22;5168;47.854;7.944;2022-08-19T06:38:04;15.60;99.90
10247;DHT22;5168;47.854;7.944;2022-08-19T06:40:30;15.10;99.90
10247;DHT22;5168;47.854;7.944;2022-08-19T06:42:56;15.40;99.90
10247;DHT22;5168;47.854;7.944;2022-08-19T06:50:19;15.00;99.90
10247;DHT22;5168;47.854;7.944;2022-08-19T06:52:45;15.60;99.90
10247;DHT22;5168;47.854;7.944;2022-08-19T06:55:12;15.50;99.90
10247;DHT22;5168;47.854;7.944;2022-08-19T06:57:37;15.00;99.90
10247;DHT22;5168;47.854;7.944;2022-08-19T07:00:05;15.10;99.90
10247;DHT22;5168;47.854;7.944;2022-08-19T07:02:33;15.40;99.90
10247;DHT22;5168;47.854;7.944;2022-08-19T07:05:02;15.00;99.90
10247;DHT22;5168;47.854;7.944;2022-08-19T07:07:29;14.90;99.90
10247;DHT22;5168;47.854;7.944;2022-08-19T07:09:56;14.90;99.90
10247;DHT22;5168;47.854;7.944;2022-08-19T07:12:22;15.50;99.90
10247;DHT22;5168;47.854;7.944;2022-08-19T07:17:14;14.80;99.90
10247;DHT22;5168;47.854;7.944;2022-08-19T07:19:41;15.80;99.90
10247;DHT22;5168;47.854;7.944;2022-08-19T07:22:08;15.90;99.90
10247;DHT22;5168;47.854;7.944;2022-08-19T07:24:35;14.90;99.90
10247;DHT22;5168;47.854;7.944;2022-08-19T07:27:03;15.50;99.90
10247;DHT22;5168;47.854;7.944;2022-08-19T07:29:31;14.80;99.90
10247;DHT22;5168;47.854;7.944;2022-08-19T07:31:59;15.60;99.90
10247;DHT22;5168;47.854;7.944;2022-08-19T07:34:26;15.30;99.90
10247;DHT22;5168;47.854;7.944;2022-08-19T07:36:53;15.40;99.90
10247;DHT22;5168;47.854;7.944;2022-08-19T07:39:29;15.20;99.90
10247;DHT22;5168;47.854;7.944;2022-08-19T07:41:57;15.90;99.90
10247;DHT22;5168;47.854;7.944;2022-08-19T07:46:52;15.40;99.90
10247;DHT22;5168;47.854;7.944;2022-08-19T07:49:18;15.20;99.90
10247;DHT22;5168;47.854;7.944;2022-08-19T07:51:53;15.60;99.90
10247;DHT22;5168;47.854;7.944;2022-08-19T07:54:20;15.00;99.90
10247;DHT22;5168;47.854;7.944;2022-08-19T08:01:39;15.60;99.90
10247;DHT22;5168;47.854;7.944;2022-08-19T08:04:06;15.90;99.90
10247;DHT22;5168;47.854;7.944;2022-08-19T08:06:51;15.60;99.90
10247;DHT22;5168;47.854;7.944;2022-08-19T08:09:38;15.40;99.90
10247;DHT22;5168;47.854;7.944;2022-08-19T08:12:07;15.00;99.90
10247;DHT22;5168;47.854;7.944;2022-08-19T08:14:44;15.30;99.90
10247;DHT22;5168;47.854;7.944;2022-08-19T08:17:12;14.90;99.90
10247;DHT22;5168;47.854;7.944;2022-08-19T08:19:39;15.10;99.90
10247;DHT22;5168;47.854;7.944;2022-08-19T08:22:07;15.00;99.90
10247;DHT22;5168;47.854;7.944;2022-08-19T08:24:33;15.20;99.90
10247;DHT22;5168;47.854;7.944;2022-08-19T08:27:00;15.20;99.90
10247;DHT22;5168;47.854;7.944;2022-08-19T08:29:27;16.00;99.90
10247;DHT22;5168;47.854;7.944;2022-08-19T08:31:53;15.70;99.90
10247;DHT22;5168;47.854;7.944;2022-08-19T08:36:45;15.30;99.90
10247;DHT22;5168;47.854;7.944;2022-08-19T08:39:19;16.00;99.90
10247;DHT22;5168;47.854;7.944;2022-08-19T08:42:21;15.10;99.90
10247;DHT22;5168;47.854;7.944;2022-08-19T08:44:58;15.70;99.90
10247;DHT22;5168;47.854;7.944;2022-08-19T08:47:26;16.10;99.90
10247;DHT22;5168;47.854;7.944;2022-08-19T08:49:59;15.50;99.90
10247;DHT22;5168;47.854;7.944;2022-08-19T08:52:31;15.10;99.90
10247;DHT22;5168;47.854;7.944;2022-08-19T08:55:04;15.30;99.90
10247;DHT22;5168;47.854;7.944;2022-08-19T09:00:36;15.50;99.90
10247;DHT22;5168;47.854;7.944;2022-08-19T09:03:05;15.50;99.90
10247;DHT22;5168;47.854;7.944;2022-08-19T09:08:48;15.40;99.90
10247;DHT22;5168;47.854;7.944;2022-08-19T09:16:58;15.40;99.90
10247;DHT22;5168;47.854;7.944;2022-08-19T09:21:50;15.00;99.90
10247;DHT22;5168;47.854;7.944;2022-08-19T09:24:16;15.90;99.90
10247;DHT22;5168;47.854;7.944;2022-08-19T09:29:09;15.30;99.90
10247;DHT22;5168;47.854;7.944;2022-08-19T09:31:36;15.80;99.90
10247;DHT22;5168;47.854;7.944;2022-08-19T09:34:01;15.00;99.90
10247;DHT22;5168;47.854;7.944;2022-08-19T09:36:30;15.50;99.90
10247;DHT22;5168;47.854;7.944;2022-08-19T09:38:59;15.50;99.90
10247;DHT22;5168;47.854;7.944;2022-08-19T09:41:25;15.80;99.90
10247;DHT22;5168;47.854;7.944;2022-08-19T09:43:53;15.80;99.90
10247;DHT22;5168;47.854;7.944;2022-08-19T09:46:22;15.70;99.90
10247;DHT22;5168;47.854;7.944;2022-08-19T09:48:49;15.40;99.90
10247;DHT22;5168;47.854;7.944;2022-08-19T09:51:19;16.40;99.90
10247;DHT22;5168;47.854;7.944;2022-08-19T09:53:45;15.80;99.90
10247;DHT22;5168;47.854;7.944;2022-08-19T09:56:12;16.40;99.90
10247;DHT22;5168;47.854;7.944;2022-08-19T09:58:38;16.10;99.90
10247;DHT22;5168;47.854;7.944;2022-08-19T10:01:06;15.60;99.90
10247;DHT22;5168;47.854;7.944;2022-08-19T10:03:34;16.00;99.90
10247;DHT22;5168;47.854;7.944;2022-08-19T10:06:04;15.80;99.90
10247;DHT22;5168;47.854;7.944;2022-08-19T10:08:32;15.90;99.90
10247;DHT22;5168;47.854;7.944;2022-08-19T10:10:59;16.10;99.90
10247;DHT22;5168;47.854;7.944;2022-08-19T10:13:27;16.10;99.90
10247;DHT22;5168;47.854;7.944;2022-08-19T10:15:55;16.40;99.90
10247;DHT22;5168;47.854;7.944;2022-08-19T10:18:22;16.50;99.90
10247;DHT22;5168;47.854;7.944;2022-08-19T10:20:50;15.70;99.90
10247;DHT22;5168;47.854;7.944;2022-08-19T10:25:42;16.20;99.90
10247;DHT22;5168;47.854;7.944;2022-08-19T10:28:10;16.70;99.90
10247;DHT22;5168;47.854;7.944;2022-08-19T10:30:38;15.70;99.90
10247;DHT22;5168;47.854;7.944;2022-08-19T10:35:30;16.70;99.90
10247;DHT22;5168;47.854;7.944;2022-08-19T10:37:56;16.50;99.90
10247;DHT22;5168;47.854;7.944;2022-08-19T10:40:27;16.30;99.90
10247;DHT22;5168;47.854;7.944;2022-08-19T10:42:54;16.70;99.90
10247;DHT22;5168;47.854;7.944;2022-08-19T10:45:21;16.70;99.90
10247;DHT22;5168;47.854;7.944;2022-08-19T10:47:50;16.20;99.90
10247;DHT22;5168;47.854;7.944;2022-08-19T10:50:16;15.80;99.90
10247;DHT22;5168;47.854;7.944;2022-08-19T10:53:07;16.20;99.90
10247;DHT22;5168;47.854;7.944;2022-08-19T10:55:37;16.30;99.90
10247;DHT22;5168;47.854;7.944;2022-08-19T10:58:22;15.80;99.90
10247;DHT22;5168;47.854;7.944;2022-08-19T11:00:52;16.80;99.90
10247;DHT22;5168;47.854;7.944;2022-08-19T11:03:18;16.10;99.90
10247;DHT22;5168;47.854;7.944;2022-08-19T11:17:57;16.00;99.90
10247;DHT22;5168;47.854;7.944;2022-08-19T11:20:23;16.60;99.90
10247;DHT22;5168;47.854;7.944;2022-08-19T11:22:52;15.80;99.90
10247;DHT22;5168;47.854;7.944;2022-08-19T11:25:18;16.10;99.90
10247;DHT22;5168;47.854;7.944;2022-08-19T11:27:44;16.70;99.90
10247;DHT22;5168;47.854;7.944;2022-08-19T11:30:13;16.40;99.90
10247;DHT22;5168;47.854;7.944;2022-08-19T11:32:39;16.70;99.90
10247;DHT22;5168;47.854;7.944;2022-08-19T11:35:05;16.10;99.90
10247;DHT22;5168;47.854;7.944;2022-08-19T11:37:31;16.00;99.90
10247;DHT22;5168;47.854;7.944;2022-08-19T11:40:04;16.80;99.90
10247;DHT22;5168;47.854;7.944;2022-08-19T11:42:33;16.30;99.90
10247;DHT22;5168;47.854;7.944;2022-08-19T11:45:17;16.90;99.90
10247;DHT22;5168;47.854;7.944;2022-08-19T11:55:02;16.90;99.90
10247;DHT22;5168;47.854;7.944;2022-08-19T11:59:54;16.60;99.90
10247;DHT22;5168;47.854;7.944;2022-08-19T12:04:46;17.20;99.90
10247;DHT22;5168;47.854;7.944;2022-08-19T12:07:12;17.10;99.90
10247;DHT22;5168;47.854;7.944;2022-08-19T12:16:57;17.50;99.90
10247;DHT22;5168;47.854;7.944;2022-08-19T12:21:50;17.50;99.90
10247;DHT22;5168;47.854;7.944;2022-08-19T12:24:17;17.70;99.90
10247;DHT22;5168;47.854;7.944;2022-08-19T12:26:48;18.40;99.90
10247;DHT22;5168;47.854;7.944;2022-08-19T12:29:14;18.30;99.90
10247;DHT22;5168;47.854;7.944;2022-08-19T12:31:40;18.20;99.90
10247;DHT22;5168;47.854;7.944;2022-08-19T12:34:05;17.40;99.90
10247;DHT22;5168;47.854;7.944;2022-08-19T12:36:31;18.00;99.90
10247;DHT22;5168;47.854;7.944;2022-08-19T12:38:58;18.50;99.90
10247;DHT22;5168;47.854;7.944;2022-08-19T12:46:18;18.20;99.90
10247;DHT22;5168;47.854;7.944;2022-08-19T12:48:44;18.80;99.90
10247;DHT22;5168;47.854;7.944;2022-08-19T12:51:14;18.30;99.90
10247;DHT22;5168;47.854;7.944;2022-08-19T12:53:41;18.00;99.90
10247;DHT22;5168;47.854;7.944;2022-08-19T12:56:08;18.30;99.90
10247;DHT22;5168;47.854;7.944;2022-08-19T12:58:34;18.70;99.90
10247;DHT22;5168;47.854;7.944;2022-08-19T13:01:06;18.60;99.90
10247;DHT22;5168;47.854;7.944;2022-08-19T13:03:32;18.40;99.90
10247;DHT22;5168;47.854;7.944;2022-08-19T13:08:23;18.30;99.90
10247;DHT22;5168;47.854;7.944;2022-08-19T13:10:49;18.20;99.90
10247;DHT22;5168;47.854;7.944;2022-08-19T13:13:14;18.50;99.90
10247;DHT22;5168;47.854;7.944;2022-08-19T13:15:41;17.90;99.90
10247;DHT22;5168;47.854;7.944;2022-08-19T13:18:09;18.70;99.90
10247;DHT22;5168;47.854;7.944;2022-08-19T13:20:36;18.70;99.90
10247;DHT22;5168;47.854;7.944;2022-08-19T13:23:02;18.20;99.90
10247;DHT22;5168;47.854;7.944;2022-08-19T13:30:21;18.00;99.90
10247;DHT22;5168;47.854;7.944;2022-08-19T13:33:06;18.50;99.90
10247;DHT22;5168;47.854;7.944;2022-08-19T13:35:56;18.10;99.90
10247;DHT22;5168;47.854;7.944;2022-08-19T13:38:23;18.50;99.90
10247;DHT22;5168;47.854;7.944;2022-08-19T13:40:51;17.70;99.90
10247;DHT22;5168;47.854;7.944;2022-08-19T13:43:19;17.90;99.90
10247;DHT22;5168;47.854;7.944;2022-08-19T13:48:14;17.50;99.90
10247;DHT22;5168;47.854;7.944;2022-08-19T13:50:42;18.00;99.90
10247;DHT22;5168;47.854;7.944;2022-08-19T13:53:10;18.00;99.90
10247;DHT22;5168;47.854;7.944;2022-08-19T13:55:40;18.10;99.90
10247;DHT22;5168;47.854;7.944;2022-08-19T13:58:06;17.60;99.90
10247;DHT22;5168;47.854;7.944;2022-08-19T14:00:36;18.60;99.90
10247;DHT22;5168;47.854;7.944;2022-08-19T14:03:03;18.00;99.90
10247;DHT22;5168;47.854;7.944;2022-08-19T14:05:30;18.40;99.90
10247;DHT22;5168;47.854;7.944;2022-08-19T14:10:22;17.90;99.90
10247;DHT22;5168;47.854;7.944;2022-08-19T14:15:15;18.70;99.90
10247;DHT22;5168;47.854;7.944;2022-08-19T14:17:43;18.10;99.90
10247;DHT22;5168;47.854;7.944;2022-08-19T14:20:10;18.50;99.90
10247;DHT22;5168;47.854;7.944;2022-08-19T14:22:37;18.40;99.90
10247;DHT22;5168;47.854;7.944;2022-08-19T14:25:04;18.30;99.90
10247;DHT22;5168;47.854;7.944;2022-08-19T14:27:32;18.00;99.90
10247;DHT22;5168;47.854;7.944;2022-08-19T14:29:58;18.60;99.90
10247;DHT22;5168;47.854;7.944;2022-08-19T14:34:53;18.20;99.90
10247;DHT22;5168;47.854;7.944;2022-08-19T14:37:18;19.30;99.90
10247;DHT22;5168;47.854;7.944;2022-08-19T14:39:44;19.20;99.90
10247;DHT22;5168;47.854;7.944;2022-08-19T14:42:11;19.70;99.90
10247;DHT22;5168;47.854;7.944;2022-08-19T14:44:37;19.50;99.90
10247;DHT22;5168;47.854;7.944;2022-08-19T14:47:03;19.50;99.90
10247;DHT22;5168;47.854;7.944;2022-08-19T14:49:29;19.50;99.90
10247;DHT22;5168;47.854;7.944;2022-08-19T14:51:54;19.50;99.90
10247;DHT22;5168;47.854;7.944;2022-08-19T14:54:20;19.10;99.90
10247;DHT22;5168;47.854;7.944;2022-08-19T14:59:13;19.00;99.90
10247;DHT22;5168;47.854;7.944;2022-08-19T15:04:05;19.00;99.90
10247;DHT22;5168;47.854;7.944;2022-08-19T15:06:30;18.60;99.90
10247;DHT22;5168;47.854;7.944;2022-08-19T15:08:57;18.60;99.90
10247;DHT22;5168;47.854;7.944;2022-08-19T15:11:25;18.40;99.90
10247;DHT22;5168;47.854;7.944;2022-08-19T15:16:19;18.20;99.90
10247;DHT22;5168;47.854;7.944;2022-08-19T15:18:46;18.50;99.90
10247;DHT22;5168;47.854;7.944;2022-08-19T15:21:15;17.70;99.90
10247;DHT22;5168;47.854;7.944;2022-08-19T15:23:48;17.80;99.90
10247;DHT22;5168;47.854;7.944;2022-08-19T15:26:15;18.00;99.90
10247;DHT22;5168;47.854;7.944;2022-08-19T15:28:41;17.90;99.90
10247;DHT22;5168;47.854;7.944;2022-08-19T15:31:07;17.90;99.90
10247;DHT22;5168;47.854;7.944;2022-08-19T15:33:34;17.90;99.90
10247;DHT22;5168;47.854;7.944;2022-08-19T15:36:04;17.70;99.90
10247;DHT22;5168;47.854;7.944;2022-08-19T15:38:31;17.70;99.90
10247;DHT22;5168;47.854;7.944;2022-08-19T15:40:59;18.20;99.90
10247;DHT22;5168;47.854;7.944;2022-08-19T15:46:11;17.50;99.90
10247;DHT22;5168;47.854;7.944;2022-08-19T15:48:37;18.30;99.90
10247;DHT22;5168;47.854;7.944;2022-08-19T15:51:03;18.40;99.90
10247;DHT22;5168;47.854;7.944;2022-08-19T15:53:28;17.40;99.90
10247;DHT22;5168;47.854;7.944;2022-08-19T15:58:20;18.10;99.90
10247;DHT22;5168;47.854;7.944;2022-08-19T16:01:06;17.50;99.90
10247;DHT22;5168;47.854;7.944;2022-08-19T16:03:52;17.70;99.90
10247;DHT22;5168;47.854;7.944;2022-08-19T16:06:40;17.30;99.90
10247;DHT22;5168;47.854;7.944;2022-08-19T16:09:06;17.40;99.90
10247;DHT22;5168;47.854;7.944;2022-08-19T16:11:34;17.80;99.90
10247;DHT22;5168;47.854;7.944;2022-08-19T16:14:01;17.80;99.90
10247;DHT22;5168;47.854;7.944;2022-08-19T16:16:32;17.60;99.90
10247;DHT22;5168;47.854;7.944;2022-08-19T16:18:59;17.60;99.90
10247;DHT22;5168;47.854;7.944;2022-08-19T16:21:27;18.00;99.90
10247;DHT22;5168;47.854;7.944;2022-08-19T16:28:49;18.00;99.90
10247;DHT22;5168;47.854;7.944;2022-08-19T16:31:15;17.60;99.90
10247;DHT22;5168;47.854;7.944;2022-08-19T16:33:40;18.00;99.90
10247;DHT22;5168;47.854;7.944;2022-08-19T16:36:07;17.20;99.90
10247;DHT22;5168;47.854;7.944;2022-08-19T16:38:34;17.70;99.90
10247;DHT22;5168;47.854;7.944;2022-08-19T16:41:02;17.80;99.90
10247;DHT22;5168;47.854;7.944;2022-08-19T16:43:28;17.40;99.90
10247;DHT22;5168;47.854;7.944;2022-08-19T16:45:57;18.30;99.90
10247;DHT22;5168;47.854;7.944;2022-08-19T16:48:25;18.30;99.90
10247;DHT22;5168;47.854;7.944;2022-08-19T16:53:22;17.80;99.90
10247;DHT22;5168;47.854;7.944;2022-08-19T16:55:49;17.30;99.90
10247;DHT22;5168;47.854;7.944;2022-08-19T16:58:15;18.10;99.90
10247;DHT22;5168;47.854;7.944;2022-08-19T17:03:09;17.90;99.90
10247;DHT22;5168;47.854;7.944;2022-08-19T17:05:56;17.80;99.90
10247;DHT22;5168;47.854;7.944;2022-08-19T17:08:25;17.30;99.90
10247;DHT22;5168;47.854;7.944;2022-08-19T17:10:53;17.60;99.90
10247;DHT22;5168;47.854;7.944;2022-08-19T17:13:20;17.10;99.90
10247;DHT22;5168;47.854;7.944;2022-08-19T17:15:46;17.90;99.90
10247;DHT22;5168;47.854;7.944;2022-08-19T17:18:12;17.80;99.90
10247;DHT22;5168;47.854;7.944;2022-08-19T17:20:39;17.70;99.90
10247;DHT22;5168;47.854;7.944;2022-08-19T17:23:05;17.40;99.90
10247;DHT22;5168;47.854;7.944;2022-08-19T17:25:31;18.40;99.90
10247;DHT22;5168;47.854;7.944;2022-08-19T17:28:05;17.90;99.90
10247;DHT22;5168;47.854;7.944;2022-08-19T17:30:31;17.50;99.90
10247;DHT22;5168;47.854;7.944;2022-08-19T17:32:57;18.10;99.90
10247;DHT22;5168;47.854;7.944;2022-08-19T17:35:22;18.10;99.90
10247;DHT22;5168;47.854;7.944;2022-08-19T17:37:48;17.90;99.90
10247;DHT22;5168;47.854;7.944;2022-08-19T17:40:16;17.20;99.90
10247;DHT22;5168;47.854;7.944;2022-08-19T17:42:43;17.70;99.90
10247;DHT22;5168;47.854;7.944;2022-08-19T17:45:09;17.20;99.90
10247;DHT22;5168;47.854;7.944;2022-08-19T17:47:36;18.00;99.90
10247;DHT22;5168;47.854;7.944;2022-08-19T17:50:03;17.30;99.90
10247;DHT22;5168;47.854;7.944;2022-08-19T17:52:30;17.30;99.90
10247;DHT22;5168;47.854;7.944;2022-08-19T17:54:56;17.40;99.90
10247;DHT22;5168;47.854;7.944;2022-08-19T18:02:14;17.10;99.90
10247;DHT22;5168;47.854;7.944;2022-08-19T18:09:35;17.20;99.90
10247;DHT22;5168;47.854;7.944;2022-08-19T18:12:01;17.10;99.90
10247;DHT22;5168;47.854;7.944;2022-08-19T18:14:30;16.70;99.90
10247;DHT22;5168;47.854;7.944;2022-08-19T18:16:58;17.00;99.90
10247;DHT22;5168;47.854;7.944;2022-08-19T18:19:24;16.50;99.90
10247;DHT22;5168;47.854;7.944;2022-08-19T18:21:51;16.70;99.90
10247;DHT22;5168;47.854;7.944;2022-08-19T18:24:17;16.60;99.90
10247;DHT22;5168;47.854;7.944;2022-08-19T18:26:43;17.40;99.90
10247;DHT22;5168;47.854;7.944;2022-08-19T18:29:09;16.30;99.90
10247;DHT22;5168;47.854;7.944;2022-08-19T18:31:36;17.10;99.90
10247;DHT22;5168;47.854;7.944;2022-08-19T18:34:03;16.40;99.90
10247;DHT22;5168;47.854;7.944;2022-08-19T18:36:29;17.10;99.90
10247;DHT22;5168;47.854;7.944;2022-08-19T18:41:39;16.80;99.90
10247;DHT22;5168;47.854;7.944;2022-08-19T18:44:23;16.00;99.90
10247;DHT22;5168;47.854;7.944;2022-08-19T18:47:07;16.50;99.90
10247;DHT22;5168;47.854;7.944;2022-08-19T18:52:18;16.60;99.90
10247;DHT22;5168;47.854;7.944;2022-08-19T18:57:15;15.60;99.90
10247;DHT22;5168;47.854;7.944;2022-08-19T18:59:43;15.80;99.90
10247;DHT22;5168;47.854;7.944;2022-08-19T19:02:12;15.90;99.90
10247;DHT22;5168;47.854;7.944;2022-08-19T19:07:10;15.80;99.90
10247;DHT22;5168;47.854;7.944;2022-08-19T19:12:04;15.20;99.90
10247;DHT22;5168;47.854;7.944;2022-08-19T19:14:35;15.30;99.90
10247;DHT22;5168;47.854;7.944;2022-08-19T19:17:05;15.70;99.90
10247;DHT22;5168;47.854;7.944;2022-08-19T19:21:58;15.30;99.90